createdAt,value
2019-06-26T00:01:50.490Z,25.31
2019-06-26T00:04:18.815Z,25.28
2019-06-26T00:06:47.191Z,25.32
2019-06-26T00:09:15.672Z,25.34
2019-06-26T00:11:44.432Z,25.30
2019-06-26T00:14:12.762Z,25.26
2019-06-26T00:16:41.166Z,25.26
2019-06-26T00:19:09.579Z,25.25
2019-06-26T00:21:37.889Z,25.21
2019-06-26T00:24:06.282Z,25.14
2019-06-26T00:26:34.644Z,25.15
2019-06-26T00:29:03.169Z,25.13
2019-06-26T00:31:31.517Z,25.12
2019-06-26T00:33:59.894Z,25.09
2019-06-26T00:36:28.282Z,25.06
2019-06-26T00:38:56.621Z,25.03
2019-06-26T00:41:24.972Z,24.98
2019-06-26T00:43:53.571Z,24.95
2019-06-26T00:46:21.885Z,24.94
2019-06-26T00:48:50.264Z,24.92
2019-06-26T00:51:18.657Z,24.90
2019-06-26T00:53:46.963Z,24.87
2019-06-26T00:56:15.472Z,24.89
2019-06-26T00:58:43.789Z,24.94
2019-06-26T01:01:12.190Z,24.98
2019-06-26T01:03:40.489Z,24.98
2019-06-26T01:06:10.622Z,24.94
2019-06-26T01:08:38.937Z,24.93
2019-06-26T01:11:07.256Z,24.94
2019-06-26T01:13:35.637Z,24.91
2019-06-26T01:16:03.976Z,24.91
2019-06-26T01:18:32.285Z,24.85
2019-06-26T01:21:00.616Z,24.74
2019-06-26T01:23:28.986Z,24.65
2019-06-26T01:25:57.372Z,24.59
2019-06-26T01:28:25.751Z,24.56
2019-06-26T01:30:54.089Z,24.54
2019-06-26T01:33:22.390Z,24.55
2019-06-26T01:35:50.859Z,24.53
2019-06-26T01:38:19.159Z,24.53
2019-06-26T01:40:47.833Z,24.54
2019-06-26T01:43:16.137Z,24.53
2019-06-26T01:45:44.463Z,24.52
2019-06-26T01:48:12.853Z,24.49
2019-06-26T01:50:41.202Z,24.52
2019-06-26T01:53:09.515Z,24.58
2019-06-26T01:55:37.822Z,24.60
2019-06-26T01:58:06.153Z,24.59
2019-06-26T02:00:35.759Z,24.63
2019-06-26T02:03:04.082Z,24.63
2019-06-26T02:05:32.476Z,24.58
2019-06-26T02:08:00.864Z,24.62
2019-06-26T02:10:29.161Z,24.63
2019-06-26T02:12:57.584Z,24.55
2019-06-26T02:15:25.976Z,24.53
2019-06-26T02:17:54.471Z,24.56
2019-06-26T02:20:22.840Z,24.55
2019-06-26T02:22:51.193Z,24.62
2019-06-26T02:25:19.811Z,24.66
2019-06-26T02:27:48.124Z,24.58
2019-06-26T02:30:16.965Z,24.59
2019-06-26T02:32:45.319Z,24.63
2019-06-26T02:35:13.860Z,24.48
2019-06-26T02:37:42.244Z,24.50
2019-06-26T02:40:11.527Z,24.48
2019-06-26T02:42:39.979Z,24.52
2019-06-26T02:45:08.366Z,24.48
2019-06-26T02:47:36.681Z,24.44
2019-06-26T02:50:09.502Z,24.51
2019-06-26T02:52:37.927Z,24.51
2019-06-26T02:55:07.175Z,24.50
2019-06-26T02:57:35.546Z,24.54
2019-06-26T03:00:05.224Z,24.53
2019-06-26T03:02:33.658Z,24.54
2019-06-26T03:05:02.103Z,24.49
2019-06-26T03:07:30.807Z,24.38
2019-06-26T03:09:59.127Z,24.28
2019-06-26T03:12:27.444Z,24.23
2019-06-26T03:15:08.293Z,24.24
2019-06-26T03:17:25.900Z,24.25
2019-06-26T03:19:56.252Z,24.23
2019-06-26T03:22:24.587Z,24.29
2019-06-26T03:24:52.952Z,24.34
2019-06-26T03:27:21.316Z,24.39
2019-06-26T03:29:49.645Z,24.35
2019-06-26T03:32:18.067Z,24.28
2019-06-26T03:34:46.400Z,24.23
2019-06-26T03:37:14.789Z,24.08
2019-06-26T03:39:43.181Z,24.03
2019-06-26T03:42:11.622Z,23.99
2019-06-26T03:44:39.948Z,24.03
2019-06-26T03:47:08.582Z,24.11
2019-06-26T03:49:38.200Z,24.14
2019-06-26T03:52:06.640Z,24.05
2019-06-26T03:54:35.260Z,23.99
2019-06-26T03:57:03.593Z,24.09
2019-06-26T03:59:31.923Z,24.10
2019-06-26T04:02:00.225Z,24.10
2019-06-26T04:04:28.529Z,24.16
2019-06-26T04:06:56.866Z,24.11
2019-06-26T04:09:25.186Z,24.10
2019-06-26T04:11:53.580Z,24.13
2019-06-26T04:14:21.947Z,24.17
2019-06-26T04:16:50.392Z,24.30
2019-06-26T04:19:18.762Z,24.37
2019-06-26T04:21:47.078Z,24.37
2019-06-26T04:24:15.493Z,24.37
2019-06-26T04:26:43.895Z,24.37
2019-06-26T04:29:12.196Z,24.26
2019-06-26T04:31:40.634Z,24.22
2019-06-26T04:34:08.946Z,24.17
2019-06-26T04:36:37.269Z,24.19
2019-06-26T04:39:06.809Z,24.19
2019-06-26T04:41:35.196Z,24.23
2019-06-26T04:44:03.514Z,24.27
2019-06-26T04:46:31.845Z,24.34
2019-06-26T04:49:00.147Z,24.35
2019-06-26T04:51:28.553Z,24.43
2019-06-26T04:53:56.858Z,24.50
2019-06-26T04:56:25.214Z,24.55
2019-06-26T04:58:53.508Z,24.57
2019-06-26T05:01:21.928Z,24.60
2019-06-26T05:03:50.223Z,24.69
2019-06-26T05:06:18.619Z,24.79
2019-06-26T05:08:47.015Z,24.89
2019-06-26T05:11:15.323Z,24.98
2019-06-26T05:13:43.728Z,25.05
2019-06-26T05:16:15.810Z,25.09
2019-06-26T05:18:42.193Z,25.21
2019-06-26T05:21:10.572Z,25.27
2019-06-26T05:27:00.483Z,25.22
2019-06-26T05:29:28.795Z,25.22
2019-06-26T05:31:57.208Z,25.27
2019-06-26T05:34:25.524Z,25.27
2019-06-26T05:36:54.201Z,25.31
2019-06-26T05:39:22.527Z,25.35
2019-06-26T05:41:50.829Z,25.43
2019-06-26T05:44:19.247Z,25.41
2019-06-26T05:46:47.621Z,25.36
2019-06-26T05:49:15.995Z,25.37
2019-06-26T05:51:44.302Z,25.40
2019-06-26T05:54:12.749Z,25.53
2019-06-26T05:56:41.022Z,25.67
2019-06-26T05:59:09.443Z,25.79
2019-06-26T06:01:37.748Z,25.94
2019-06-26T06:04:06.098Z,26.04
2019-06-26T06:06:41.535Z,26.15
2019-06-26T06:09:07.380Z,26.26
2019-06-26T06:11:35.750Z,26.34
2019-06-26T06:14:04.100Z,26.42
2019-06-26T06:16:46.142Z,26.51
2019-06-26T06:19:03.022Z,26.66
2019-06-26T06:21:31.382Z,26.73
2019-06-26T06:23:59.724Z,26.89
2019-06-26T06:26:28.023Z,27.03
2019-06-26T06:28:56.370Z,27.15
2019-06-26T06:31:24.748Z,27.29
2019-06-26T06:33:53.279Z,27.34
2019-06-26T06:36:21.606Z,27.39
2019-06-26T06:38:49.934Z,27.45
2019-06-26T06:41:18.298Z,27.62
2019-06-26T06:43:46.785Z,27.79
2019-06-26T06:46:15.203Z,27.94
2019-06-26T06:48:43.587Z,28.10
2019-06-26T06:51:12.205Z,28.21
2019-06-26T06:53:40.578Z,28.35
2019-06-26T06:56:08.937Z,28.45
2019-06-26T06:58:37.293Z,28.59
2019-06-26T07:01:11.289Z,28.71
2019-06-26T07:03:39.603Z,28.83
2019-06-26T07:06:07.970Z,28.92
2019-06-26T07:08:36.269Z,29.05
2019-06-26T07:11:04.609Z,29.17
2019-06-26T07:13:32.998Z,29.29
2019-06-26T07:16:01.296Z,29.41
2019-06-26T07:18:29.589Z,29.54
2019-06-26T07:20:58.108Z,29.59
2019-06-26T07:23:26.437Z,29.63
2019-06-26T07:25:54.754Z,29.72
2019-06-26T07:28:23.111Z,29.80
2019-06-26T07:30:51.552Z,29.85
2019-06-26T07:33:19.949Z,29.95
2019-06-26T07:35:48.375Z,30.05
2019-06-26T07:38:16.699Z,30.17
2019-06-26T07:40:45.039Z,30.29
2019-06-26T07:43:16.408Z,30.36
2019-06-26T07:45:43.508Z,30.45
2019-06-26T07:48:11.814Z,30.49
2019-06-26T07:50:40.126Z,30.58
2019-06-26T07:53:08.561Z,30.65
2019-06-26T07:55:40.364Z,30.67
2019-06-26T07:58:07.031Z,30.69
2019-06-26T08:00:35.444Z,30.65
2019-06-26T08:03:04.609Z,30.63
2019-06-26T08:05:33.179Z,30.74
2019-06-26T08:08:01.581Z,30.83
2019-06-26T08:10:30.014Z,30.95
2019-06-26T08:12:58.356Z,30.99
2019-06-26T08:15:26.828Z,30.99
2019-06-26T08:18:00.674Z,31.07
2019-06-26T08:20:25.469Z,31.27
2019-06-26T08:22:53.781Z,31.52
2019-06-26T08:25:22.244Z,31.71
2019-06-26T08:27:50.646Z,31.87
2019-06-26T08:30:19.288Z,32.06
2019-06-26T08:32:47.628Z,32.23
2019-06-26T08:35:17.467Z,32.32
2019-06-26T08:37:45.865Z,32.39
2019-06-26T08:40:14.719Z,32.42
2019-06-26T08:42:43.111Z,32.45
2019-06-26T08:45:11.855Z,32.55
2019-06-26T08:47:40.297Z,32.71
2019-06-26T08:50:10.154Z,32.86
2019-06-26T08:52:38.617Z,32.94
2019-06-26T08:55:08.593Z,33.01
2019-06-26T08:57:37.389Z,33.08
2019-06-26T09:00:07.439Z,33.21
2019-06-26T09:02:35.821Z,33.25
2019-06-26T09:05:05.485Z,33.39
2019-06-26T09:07:34.162Z,33.55
2019-06-26T09:10:02.589Z,33.53
2019-06-26T09:12:30.968Z,33.53
2019-06-26T09:14:59.367Z,33.65
2019-06-26T09:17:27.672Z,33.84
2019-06-26T09:19:56.040Z,34.02
2019-06-26T09:22:25.111Z,34.10
2019-06-26T09:24:53.617Z,34.20
2019-06-26T09:27:21.948Z,34.35
2019-06-26T09:29:50.377Z,34.47
2019-06-26T09:32:18.677Z,34.37
2019-06-26T09:34:47.173Z,34.21
2019-06-26T09:37:15.572Z,34.15
2019-06-26T09:39:43.979Z,34.07
2019-06-26T09:42:12.347Z,34.15
2019-06-26T09:44:40.689Z,34.17
2019-06-26T09:47:09.134Z,34.23
2019-06-26T09:49:37.463Z,34.37
2019-06-26T09:52:05.861Z,34.27
2019-06-26T09:54:34.177Z,34.16
2019-06-26T09:57:02.562Z,34.24
2019-06-26T09:59:31.016Z,34.34
2019-06-26T10:01:59.467Z,34.51
2019-06-26T10:04:27.891Z,34.54
2019-06-26T10:06:56.295Z,34.42
2019-06-26T10:09:24.682Z,34.41
2019-06-26T10:11:53.100Z,34.43
2019-06-26T10:14:21.409Z,34.41
2019-06-26T10:16:49.786Z,34.49
2019-06-26T10:19:18.095Z,34.50
2019-06-26T10:21:46.567Z,34.56
2019-06-26T10:24:14.890Z,34.57
2019-06-26T10:26:43.339Z,34.45
2019-06-26T10:29:11.687Z,34.40
2019-06-26T10:31:40.643Z,34.38
2019-06-26T10:34:10.188Z,34.50
2019-06-26T10:36:38.734Z,34.58
2019-06-26T10:39:08.577Z,34.65
2019-06-26T10:41:36.889Z,34.81
2019-06-26T10:44:05.462Z,34.99
2019-06-26T10:46:34.023Z,35.26
2019-06-26T10:49:02.331Z,35.50
2019-06-26T10:51:30.690Z,35.62
2019-06-26T10:53:58.970Z,35.69
2019-06-26T10:56:28.856Z,35.71
2019-06-26T10:58:57.377Z,35.87
2019-06-26T11:01:25.812Z,35.99
2019-06-26T11:03:54.192Z,35.95
2019-06-26T11:06:22.746Z,35.80
2019-06-26T11:08:51.109Z,35.78
2019-06-26T11:11:19.414Z,35.97
2019-06-26T11:13:47.745Z,36.20
2019-06-26T11:16:16.041Z,36.26
2019-06-26T11:18:44.396Z,36.33
2019-06-26T11:21:12.770Z,36.20
2019-06-26T11:23:41.202Z,36.11
2019-06-26T11:26:09.830Z,36.14
2019-06-26T11:28:38.161Z,36.21
2019-06-26T11:31:06.537Z,36.15
2019-06-26T11:33:34.968Z,36.02
2019-06-26T11:36:03.362Z,36.05
2019-06-26T11:38:31.791Z,36.08
2019-06-26T11:41:01.940Z,36.29
2019-06-26T11:43:30.646Z,36.47
2019-06-26T11:45:59.119Z,36.73
2019-06-26T11:48:27.459Z,36.91
2019-06-26T11:50:55.813Z,37.18
2019-06-26T11:53:24.218Z,37.41
2019-06-26T11:55:52.651Z,37.68
2019-06-26T11:58:21.058Z,37.81
2019-06-26T12:00:49.377Z,37.85
2019-06-26T12:03:17.881Z,38.05
2019-06-26T12:05:46.182Z,38.11
2019-06-26T12:08:18.218Z,38.21
2019-06-26T12:10:44.736Z,38.25
2019-06-26T12:13:13.068Z,38.28
2019-06-26T12:15:41.463Z,38.24
2019-06-26T12:18:09.831Z,38.27
2019-06-26T12:20:38.846Z,38.33
2019-06-26T12:23:07.156Z,38.40
2019-06-26T12:25:35.552Z,38.43
2019-06-26T12:28:04.085Z,38.22
2019-06-26T12:30:32.588Z,38.17
2019-06-26T12:33:03.517Z,38.10
2019-06-26T12:35:31.095Z,38.10
2019-06-26T12:37:59.426Z,38.14
2019-06-26T12:40:31.062Z,37.96
2019-06-26T12:42:57.897Z,37.84
2019-06-26T12:45:26.262Z,38.04
2019-06-26T12:47:54.938Z,38.23
2019-06-26T12:50:34.738Z,38.12
2019-06-26T12:52:53.972Z,38.13
2019-06-26T12:55:22.299Z,38.19
2019-06-26T12:57:50.622Z,38.31
2019-06-26T13:00:19.413Z,38.41
2019-06-26T13:02:47.733Z,38.46
2019-06-26T13:05:16.818Z,38.63
2019-06-26T13:07:45.220Z,38.97
2019-06-26T13:10:13.937Z,39.01
2019-06-26T13:12:45.629Z,39.22
2019-06-26T13:15:12.651Z,39.52
2019-06-26T13:17:41.302Z,39.87
2019-06-26T13:20:10.797Z,40.04
2019-06-26T13:22:39.122Z,40.22
2019-06-26T13:25:08.565Z,40.05
2019-06-26T13:27:36.949Z,39.90
2019-06-26T13:30:06.882Z,39.96
2019-06-26T13:32:35.169Z,40.17
2019-06-26T13:35:04.528Z,40.50
2019-06-26T13:37:32.859Z,40.47
2019-06-26T13:40:01.381Z,40.13
2019-06-26T13:42:29.677Z,39.71
2019-06-26T13:44:58.101Z,39.87
2019-06-26T13:47:26.455Z,39.77
2019-06-26T13:49:54.792Z,40.06
2019-06-26T13:52:23.287Z,40.22
2019-06-26T13:54:51.614Z,40.30
2019-06-26T13:57:20.247Z,40.46
2019-06-26T13:59:48.724Z,40.28
2019-06-26T14:02:19.862Z,40.61
2019-06-26T14:04:47.187Z,40.89
2019-06-26T14:07:15.760Z,40.95
2019-06-26T14:09:44.048Z,41.02
2019-06-26T14:12:12.444Z,41.10
2019-06-26T14:14:56.761Z,40.97
2019-06-26T14:17:10.820Z,40.87
2019-06-26T14:19:39.155Z,40.90
2019-06-26T14:22:07.494Z,40.81
2019-06-26T14:24:35.814Z,40.77
2019-06-26T14:27:04.295Z,40.72
2019-06-26T14:29:32.692Z,40.53
2019-06-26T14:32:01.360Z,40.47
2019-06-26T14:34:30.292Z,40.19
2019-06-26T14:36:58.711Z,39.93
2019-06-26T14:39:27.107Z,39.61
2019-06-26T14:41:55.516Z,39.39
2019-06-26T14:44:23.842Z,39.17
2019-06-26T14:46:52.176Z,39.04
2019-06-26T14:49:20.541Z,39.03
2019-06-26T14:51:48.930Z,39.13
2019-06-26T14:54:17.372Z,39.23
2019-06-26T14:56:46.099Z,39.34
2019-06-26T14:59:14.429Z,39.42
2019-06-26T15:01:43.025Z,39.40
2019-06-26T15:04:11.358Z,39.14
2019-06-26T15:06:39.690Z,38.92
2019-06-26T15:09:08.087Z,38.79
2019-06-26T15:11:36.529Z,38.64
2019-06-26T15:14:04.964Z,38.17
2019-06-26T15:16:33.326Z,38.51
2019-06-26T15:19:01.671Z,38.59
2019-06-26T15:21:29.984Z,38.56
2019-06-26T15:23:58.327Z,38.30
2019-06-26T15:26:26.739Z,37.97
2019-06-26T15:28:55.109Z,37.76
2019-06-26T15:31:23.415Z,37.68
2019-06-26T15:33:51.759Z,37.70
2019-06-26T15:36:20.312Z,37.72
2019-06-26T15:38:48.740Z,37.68
2019-06-26T15:41:17.060Z,37.66
2019-06-26T15:43:45.391Z,37.54
2019-06-26T15:46:13.707Z,37.51
2019-06-26T15:48:42.126Z,37.59
2019-06-26T15:51:10.598Z,37.67
2019-06-26T15:53:38.991Z,37.77
2019-06-26T15:56:07.354Z,37.72
2019-06-26T15:58:35.730Z,37.71
2019-06-26T16:01:04.235Z,37.77
2019-06-26T16:03:32.699Z,37.73
2019-06-26T16:06:01.264Z,37.66
2019-06-26T16:08:29.630Z,37.43
2019-06-26T16:10:58.010Z,37.21
2019-06-26T16:13:26.358Z,37.08
2019-06-26T16:15:54.828Z,37.22
2019-06-26T16:18:25.125Z,37.22
2019-06-26T16:20:53.461Z,37.31
2019-06-26T16:23:21.802Z,37.34
2019-06-26T16:25:50.285Z,37.32
2019-06-26T16:28:18.585Z,37.31
2019-06-26T16:30:47.136Z,37.29
2019-06-26T16:33:15.530Z,37.16
2019-06-26T16:35:43.886Z,37.22
2019-06-26T16:38:12.197Z,37.14
2019-06-26T16:40:40.552Z,37.09
2019-06-26T16:43:09.016Z,37.11
2019-06-26T16:45:37.503Z,37.09
2019-06-26T16:48:05.812Z,37.07
2019-06-26T16:50:34.458Z,36.96
2019-06-26T16:53:02.824Z,36.94
2019-06-26T16:55:31.142Z,36.95
2019-06-26T16:57:59.489Z,36.93
2019-06-26T17:00:27.871Z,36.94
2019-06-26T17:02:56.447Z,36.88
2019-06-26T17:05:24.824Z,36.76
2019-06-26T17:07:53.231Z,36.69
2019-06-26T17:10:21.643Z,36.61
2019-06-26T17:12:50.045Z,36.53
2019-06-26T17:15:18.683Z,36.45
2019-06-26T17:17:47.018Z,36.38
2019-06-26T17:20:15.645Z,36.31
2019-06-26T17:22:44.098Z,36.26
2019-06-26T17:25:12.713Z,36.12
2019-06-26T17:27:41.149Z,36.09
2019-06-26T17:30:12.229Z,36.01
2019-06-26T17:32:41.221Z,35.98
2019-06-26T17:35:10.084Z,35.94
2019-06-26T17:37:38.757Z,35.93
2019-06-26T17:40:07.949Z,35.90
2019-06-26T17:42:36.433Z,35.85
2019-06-26T17:45:07.928Z,35.73
2019-06-26T17:47:36.444Z,35.72
2019-06-26T17:50:07.388Z,35.68
2019-06-26T17:52:38.421Z,35.69
2019-06-26T17:55:07.667Z,35.66
2019-06-26T17:57:36.109Z,35.58
2019-06-26T18:00:07.292Z,35.47
2019-06-26T18:02:35.649Z,35.42
2019-06-26T18:05:04.890Z,35.35
2019-06-26T18:07:33.316Z,35.32
2019-06-26T18:10:01.887Z,35.17
2019-06-26T18:12:30.300Z,34.98
2019-06-26T18:14:58.679Z,34.84
2019-06-26T18:17:27.164Z,34.70
2019-06-26T18:19:55.512Z,34.63
2019-06-26T18:22:23.973Z,34.61
2019-06-26T18:24:52.355Z,34.60
2019-06-26T18:27:22.357Z,34.57
2019-06-26T18:29:50.738Z,34.50
2019-06-26T18:32:19.295Z,34.45
2019-06-26T18:34:47.695Z,34.42
2019-06-26T18:37:16.170Z,34.38
2019-06-26T18:39:44.545Z,34.33
2019-06-26T18:42:13.012Z,34.29
2019-06-26T18:44:41.377Z,34.28
2019-06-26T18:47:09.805Z,34.26
2019-06-26T18:49:38.220Z,34.25
2019-06-26T18:52:07.810Z,34.20
2019-06-26T18:54:36.460Z,34.13
2019-06-26T18:57:04.825Z,34.04
2019-06-26T18:59:33.365Z,33.92
2019-06-26T19:02:01.663Z,33.80
2019-06-26T19:04:30.155Z,33.68
2019-06-26T19:06:58.886Z,33.58
2019-06-26T19:09:27.229Z,33.49
2019-06-26T19:11:55.616Z,33.43
2019-06-26T19:14:24.045Z,33.38
2019-06-26T19:16:52.443Z,33.35
2019-06-26T19:19:20.790Z,33.33
2019-06-26T19:21:49.163Z,33.33
2019-06-26T19:24:17.573Z,33.31
2019-06-26T19:26:50.831Z,33.28
2019-06-26T19:29:19.631Z,33.27
2019-06-26T19:31:48.036Z,33.21
2019-06-26T19:34:16.449Z,33.16
2019-06-26T19:36:49.972Z,33.14
2019-06-26T19:39:14.890Z,33.10
2019-06-26T19:41:43.366Z,33.05
2019-06-26T19:44:11.753Z,33.00
2019-06-26T19:46:42.016Z,32.95
2019-06-26T19:49:10.218Z,32.87
2019-06-26T19:51:38.585Z,32.79
2019-06-26T19:54:07.054Z,32.75
2019-06-26T19:56:35.515Z,32.70
2019-06-26T19:59:03.991Z,32.57
2019-06-26T20:01:32.340Z,32.61
2019-06-26T20:04:00.847Z,32.64
2019-06-26T20:06:29.207Z,32.62
2019-06-26T20:08:57.808Z,32.57
2019-06-26T20:11:26.120Z,32.49
2019-06-26T20:13:54.512Z,32.39
2019-06-26T20:16:22.984Z,32.30
2019-06-26T20:18:51.612Z,32.20
2019-06-26T20:21:20.030Z,32.12
2019-06-26T20:23:48.441Z,32.05
2019-06-26T20:26:16.862Z,31.96
2019-06-26T20:28:45.264Z,31.89
2019-06-26T20:31:13.602Z,31.84
2019-06-26T20:33:41.991Z,31.76
2019-06-26T20:36:10.412Z,31.70
2019-06-26T20:38:38.729Z,31.67
2019-06-26T20:41:07.159Z,31.65
2019-06-26T20:43:35.477Z,31.60
2019-06-26T20:46:03.998Z,31.54
2019-06-26T20:48:32.408Z,31.48
2019-06-26T20:51:00.883Z,31.49
2019-06-26T20:53:29.184Z,31.43
2019-06-26T20:55:57.620Z,31.36
2019-06-26T20:58:25.925Z,31.24
2019-06-26T21:00:54.337Z,31.17
2019-06-26T21:03:22.698Z,31.14
2019-06-26T21:05:51.109Z,31.10
2019-06-26T21:08:19.444Z,31.10
2019-06-26T21:10:47.763Z,31.07
2019-06-26T21:13:16.241Z,31.00
2019-06-26T21:15:44.626Z,30.93
2019-06-26T21:18:13.096Z,30.95
2019-06-26T21:20:41.423Z,30.93
2019-06-26T21:23:18.534Z,30.93
2019-06-26T21:25:39.962Z,30.88
2019-06-26T21:28:08.347Z,30.81
2019-06-26T21:30:36.737Z,30.76
2019-06-26T21:33:05.134Z,30.69
2019-06-26T21:35:33.442Z,30.74
2019-06-26T21:38:01.850Z,30.72
2019-06-26T21:40:30.253Z,30.65
2019-06-26T21:42:58.571Z,30.55
2019-06-26T21:45:26.947Z,30.50
2019-06-26T21:47:55.293Z,30.46
2019-06-26T21:50:23.756Z,30.43
2019-06-26T21:52:52.113Z,30.36
2019-06-26T21:55:33.351Z,30.31
2019-06-26T21:57:50.565Z,30.27
2019-06-26T22:00:20.600Z,30.24
2019-06-26T22:02:49.111Z,30.18
2019-06-26T22:05:17.903Z,30.14
2019-06-26T22:07:46.466Z,30.12
2019-06-26T22:10:15.530Z,30.08
2019-06-26T22:12:43.910Z,30.05
2019-06-26T22:15:12.350Z,30.01
2019-06-26T22:17:40.769Z,29.99
2019-06-26T22:20:12.568Z,29.99
2019-06-26T22:22:39.398Z,29.98
2019-06-26T22:25:08.303Z,29.95
2019-06-26T22:27:36.698Z,29.91
2019-06-26T22:30:09.021Z,29.86
2019-06-26T22:32:37.494Z,29.84
2019-06-26T22:35:07.344Z,29.82
2019-06-26T22:37:35.678Z,29.84
2019-06-26T22:40:06.002Z,29.83
2019-06-26T22:42:34.468Z,29.75
2019-06-26T22:45:02.814Z,29.53
2019-06-26T22:47:31.125Z,29.75
2019-06-26T22:49:59.557Z,29.71
2019-06-26T22:52:27.965Z,29.69
2019-06-26T22:54:56.357Z,29.62
2019-06-26T22:57:24.726Z,29.55
2019-06-26T22:59:53.073Z,29.49
2019-06-26T23:02:21.402Z,29.46
2019-06-26T23:04:49.736Z,29.42
2019-06-26T23:07:18.119Z,29.43
2019-06-26T23:09:46.611Z,29.39
2019-06-26T23:12:14.950Z,29.38
2019-06-26T23:14:43.314Z,29.31
2019-06-26T23:17:11.636Z,29.20
2019-06-26T23:19:40.036Z,29.17
2019-06-26T23:22:08.532Z,29.17
2019-06-26T23:24:38.688Z,29.17
2019-06-26T23:27:06.998Z,29.15
2019-06-26T23:29:35.370Z,29.10
2019-06-26T23:32:03.748Z,28.98
2019-06-26T23:34:32.100Z,28.98
2019-06-26T23:37:00.412Z,28.97
2019-06-26T23:39:28.761Z,28.97
2019-06-26T23:41:57.075Z,28.94
2019-06-26T23:44:25.492Z,28.87
2019-06-26T23:46:53.860Z,28.86
2019-06-26T23:49:22.278Z,28.87
2019-06-26T23:51:50.624Z,28.86
2019-06-26T23:54:18.965Z,28.81
2019-06-26T23:56:47.278Z,28.81
2019-06-26T23:59:15.597Z,28.81
